createdAt,value
2024-02-26T00:00:28.388Z,6.61
2024-02-26T00:02:57.555Z,6.63
2024-02-26T00:05:27.632Z,6.62
2024-02-26T00:07:59.759Z,6.64
2024-02-26T00:10:31.365Z,6.61
2024-02-26T00:12:59.766Z,6.56
2024-02-26T00:15:29.697Z,6.51
2024-02-26T00:17:58.134Z,6.45
2024-02-26T00:20:27.151Z,6.40
2024-02-26T00:22:55.688Z,6.38
2024-02-26T00:25:25.669Z,6.34
2024-02-26T00:27:54.292Z,6.36
2024-02-26T00:30:23.845Z,6.35
2024-02-26T00:32:52.607Z,6.32
2024-02-26T00:35:21.788Z,6.30
2024-02-26T00:37:52.190Z,6.29
2024-02-26T00:40:20.344Z,6.25
2024-02-26T00:42:50.634Z,6.34
2024-02-26T00:45:19.418Z,6.36
2024-02-26T00:47:50.186Z,6.39
2024-02-26T00:50:19.142Z,6.30
2024-02-26T00:52:47.880Z,6.24
2024-02-26T00:55:16.407Z,6.20
2024-02-26T00:57:44.961Z,6.11
2024-02-26T01:00:17.335Z,6.01
2024-02-26T01:02:47.789Z,5.91
2024-02-26T01:05:17.588Z,5.84
2024-02-26T01:07:46.211Z,5.78
2024-02-26T01:10:18.567Z,5.71
2024-02-26T01:12:50.436Z,5.67
2024-02-26T01:15:24.834Z,5.68
2024-02-26T01:17:53.410Z,5.69
2024-02-26T01:20:22.272Z,5.69
2024-02-26T01:22:52.419Z,5.69
2024-02-26T01:25:20.797Z,5.69
2024-02-26T01:27:49.557Z,5.71
2024-02-26T01:30:19.924Z,5.73
2024-02-26T01:32:50.744Z,5.74
2024-02-26T01:35:20.612Z,5.74
2024-02-26T01:37:49.246Z,5.73
2024-02-26T01:40:21.124Z,5.71
2024-02-26T01:42:50.721Z,5.67
2024-02-26T01:45:25.654Z,5.63
2024-02-26T01:47:55.421Z,5.59
2024-02-26T01:50:28.197Z,5.54
2024-02-26T01:52:57.424Z,5.52
2024-02-26T01:55:28.669Z,5.49
2024-02-26T01:57:57.325Z,5.47
2024-02-26T02:00:27.354Z,5.43
2024-02-26T02:02:57.339Z,5.39
2024-02-26T02:05:28.176Z,5.37
2024-02-26T02:07:58.918Z,5.33
2024-02-26T02:10:29.268Z,5.31
2024-02-26T02:12:57.680Z,5.27
2024-02-26T02:15:30.521Z,5.26
2024-02-26T02:17:59.235Z,5.24
2024-02-26T02:20:35.306Z,5.20
2024-02-26T02:23:04.432Z,5.13
2024-02-26T02:25:33.114Z,5.07
2024-02-26T02:28:02.122Z,5.01
2024-02-26T02:30:32.367Z,5.00
2024-02-26T02:33:01.336Z,4.99
2024-02-26T02:35:31.160Z,4.94
2024-02-26T02:38:00.351Z,4.92
2024-02-26T02:40:28.583Z,4.87
2024-02-26T02:42:57.193Z,4.81
2024-02-26T02:45:25.421Z,4.77
2024-02-26T02:47:53.871Z,4.75
2024-02-26T02:50:22.218Z,4.71
2024-02-26T02:52:52.622Z,4.73
2024-02-26T02:55:21.005Z,4.76
2024-02-26T02:57:50.094Z,4.77
2024-02-26T03:00:19.014Z,4.84
2024-02-26T03:02:47.646Z,4.84
2024-02-26T03:05:15.711Z,4.92
2024-02-26T03:07:44.859Z,4.89
2024-02-26T03:10:15.189Z,4.87
2024-02-26T03:12:45.673Z,4.91
2024-02-26T03:15:14.352Z,4.90
2024-02-26T03:17:46.117Z,4.84
2024-02-26T03:20:20.382Z,4.87
2024-02-26T03:22:52.154Z,4.85
2024-02-26T03:25:21.590Z,4.82
2024-02-26T03:27:50.412Z,4.79
2024-02-26T03:30:18.748Z,4.79
2024-02-26T03:32:49.886Z,4.79
2024-02-26T03:35:18.546Z,4.76
2024-02-26T03:37:48.746Z,4.73
2024-02-26T03:40:20.464Z,4.69
2024-02-26T03:42:50.753Z,4.63
2024-02-26T03:45:19.420Z,4.59
2024-02-26T03:47:47.710Z,4.55
2024-02-26T03:50:16.318Z,4.53
2024-02-26T03:52:44.507Z,4.53
2024-02-26T03:55:12.677Z,4.59
2024-02-26T03:57:41.359Z,4.67
2024-02-26T04:00:13.003Z,4.75
2024-02-26T04:02:42.400Z,4.81
2024-02-26T04:05:21.391Z,4.86
2024-02-26T04:07:50.739Z,4.93
2024-02-26T04:10:19.046Z,5.02
2024-02-26T04:12:47.978Z,5.15
2024-02-26T04:15:19.338Z,5.22
2024-02-26T04:17:50.272Z,5.30
2024-02-26T04:20:18.712Z,5.36
2024-02-26T04:22:47.216Z,5.39
2024-02-26T04:25:15.481Z,5.43
2024-02-26T04:27:44.193Z,5.39
2024-02-26T04:30:13.548Z,5.32
2024-02-26T04:32:43.576Z,5.31
2024-02-26T04:35:12.292Z,5.25
2024-02-26T04:37:40.620Z,5.26
2024-02-26T04:40:10.291Z,5.18
2024-02-26T04:42:38.624Z,5.09
2024-02-26T04:45:08.309Z,5.01
2024-02-26T04:47:36.603Z,4.95
2024-02-26T04:50:06.350Z,4.92
2024-02-26T04:52:34.398Z,4.88
2024-02-26T04:55:02.545Z,4.84
2024-02-26T04:57:30.839Z,4.79
2024-02-26T04:59:59.752Z,4.74
2024-02-26T05:02:28.433Z,4.69
2024-02-26T05:04:56.889Z,4.67
2024-02-26T05:07:26.615Z,4.61
2024-02-26T05:09:55.096Z,4.62
2024-02-26T05:12:23.480Z,4.59
2024-02-26T05:14:51.894Z,4.52
2024-02-26T05:17:23.806Z,4.50
2024-02-26T05:19:52.869Z,4.47
2024-02-26T05:22:22.053Z,4.42
2024-02-26T05:24:52.698Z,4.43
2024-02-26T05:27:23.441Z,4.31
2024-02-26T05:29:53.152Z,4.23
2024-02-26T05:32:21.953Z,4.17
2024-02-26T05:34:50.276Z,4.18
2024-02-26T05:37:18.470Z,4.14
2024-02-26T05:39:48.720Z,4.07
2024-02-26T05:42:18.716Z,4.02
2024-02-26T05:44:47.151Z,4.00
2024-02-26T05:47:16.000Z,3.95
2024-02-26T05:49:44.881Z,3.94
2024-02-26T05:52:13.421Z,3.93
2024-02-26T05:54:42.753Z,3.94
2024-02-26T05:57:15.298Z,3.96
2024-02-26T05:59:44.888Z,3.95
2024-02-26T06:02:13.673Z,3.98
2024-02-26T06:04:42.845Z,4.05
2024-02-26T06:07:13.417Z,4.15
2024-02-26T06:09:41.874Z,4.24
2024-02-26T06:12:11.228Z,4.34
2024-02-26T06:14:39.893Z,4.47
2024-02-26T06:17:12.455Z,4.60
2024-02-26T06:19:41.058Z,4.71
2024-02-26T06:22:10.081Z,4.79
2024-02-26T06:24:38.785Z,4.84
2024-02-26T06:27:08.386Z,4.89
2024-02-26T06:29:36.675Z,4.95
2024-02-26T06:32:05.716Z,5.01
2024-02-26T06:34:36.059Z,5.06
2024-02-26T06:37:05.179Z,5.09
2024-02-26T06:39:33.856Z,5.16
2024-02-26T06:42:02.838Z,5.23
2024-02-26T06:44:33.155Z,5.32
2024-02-26T06:47:02.074Z,5.43
2024-02-26T06:49:33.086Z,5.52
2024-02-26T06:52:03.334Z,5.62
2024-02-26T06:54:34.937Z,5.75
2024-02-26T06:57:05.271Z,5.83
2024-02-26T06:59:33.780Z,5.89
2024-02-26T07:02:02.618Z,6.05
2024-02-26T07:04:33.320Z,6.14
2024-02-26T07:07:03.012Z,6.20
2024-02-26T07:09:32.059Z,6.27
2024-02-26T07:12:01.675Z,6.40
2024-02-26T07:14:31.314Z,6.48
2024-02-26T07:16:59.699Z,6.62
2024-02-26T07:19:28.789Z,6.73
2024-02-26T07:21:57.636Z,6.85
2024-02-26T07:24:27.671Z,7.00
2024-02-26T07:26:56.394Z,7.15
2024-02-26T07:29:24.926Z,7.34
2024-02-26T07:31:53.284Z,7.61
2024-02-26T07:34:21.729Z,7.85
2024-02-26T07:36:50.116Z,8.09
2024-02-26T07:39:18.397Z,8.33
2024-02-26T07:41:51.094Z,8.59
2024-02-26T07:44:20.858Z,8.85
2024-02-26T07:46:49.605Z,9.05
2024-02-26T07:49:17.887Z,9.20
2024-02-26T07:51:46.598Z,9.34
2024-02-26T07:54:17.368Z,9.49
2024-02-26T07:56:47.592Z,9.59
2024-02-26T07:59:16.690Z,9.64
2024-02-26T08:01:49.153Z,9.77
2024-02-26T08:04:20.459Z,9.92
2024-02-26T08:06:51.655Z,10.04
2024-02-26T08:09:22.391Z,10.14
2024-02-26T08:11:53.905Z,10.21
2024-02-26T08:14:22.475Z,10.29
2024-02-26T08:16:51.390Z,10.36
2024-02-26T08:19:20.196Z,10.43
2024-02-26T08:21:49.786Z,10.49
2024-02-26T08:24:22.391Z,10.52
2024-02-26T08:26:52.787Z,10.55
2024-02-26T08:29:21.879Z,10.64
2024-02-26T08:31:51.466Z,10.66
2024-02-26T08:34:20.321Z,10.77
2024-02-26T08:36:50.418Z,10.84
2024-02-26T08:39:18.682Z,10.93
2024-02-26T08:41:54.185Z,11.03
2024-02-26T08:44:25.406Z,11.08
2024-02-26T08:46:53.731Z,11.11
2024-02-26T08:49:24.532Z,11.22
2024-02-26T08:51:52.905Z,11.61
2024-02-26T08:54:21.618Z,12.29
2024-02-26T08:56:51.573Z,12.53
2024-02-26T08:59:23.810Z,13.27
2024-02-26T09:01:52.513Z,13.37
2024-02-26T09:04:20.926Z,13.88
2024-02-26T09:06:50.290Z,13.63
2024-02-26T09:09:18.731Z,13.74
2024-02-26T09:11:47.448Z,15.62
2024-02-26T09:14:17.408Z,16.33
2024-02-26T09:16:45.834Z,15.50
2024-02-26T09:19:14.869Z,14.65
2024-02-26T09:21:45.413Z,16.28
2024-02-26T09:24:14.343Z,16.86
2024-02-26T09:26:43.145Z,16.76
2024-02-26T09:29:11.910Z,16.82
2024-02-26T09:31:43.271Z,15.89
2024-02-26T09:34:11.830Z,15.32
2024-02-26T09:36:40.532Z,15.22
2024-02-26T09:39:12.658Z,16.70
2024-02-26T09:41:41.748Z,18.29
2024-02-26T09:44:12.612Z,18.89
2024-02-26T09:46:42.407Z,18.87
2024-02-26T09:49:12.829Z,20.21
2024-02-26T09:51:41.784Z,19.96
2024-02-26T09:54:12.436Z,20.40
2024-02-26T09:56:53.347Z,19.30
2024-02-26T09:59:29.375Z,18.80
2024-02-26T10:02:01.714Z,19.76
2024-02-26T10:04:30.898Z,21.59
2024-02-26T10:07:01.362Z,22.28
2024-02-26T10:09:29.731Z,22.75
2024-02-26T10:11:59.529Z,23.90
2024-02-26T10:14:28.151Z,23.33
2024-02-26T10:16:58.599Z,20.51
2024-02-26T10:19:29.093Z,19.17
2024-02-26T10:22:05.638Z,19.38
2024-02-26T10:24:37.240Z,21.59
2024-02-26T10:27:07.260Z,23.14
2024-02-26T10:29:35.852Z,23.63
2024-02-26T10:32:06.345Z,24.06
2024-02-26T10:34:35.024Z,24.28
2024-02-26T10:37:07.525Z,25.05
2024-02-26T10:39:38.453Z,25.55
2024-02-26T10:42:16.326Z,25.54
2024-02-26T10:44:46.349Z,25.40
2024-02-26T10:47:16.839Z,24.20
2024-02-26T10:49:50.715Z,21.93
2024-02-26T10:52:21.853Z,19.92
2024-02-26T10:54:52.961Z,18.68
2024-02-26T10:57:26.662Z,17.92
2024-02-26T10:59:56.469Z,17.63
2024-02-26T11:02:27.037Z,17.94
2024-02-26T11:04:55.952Z,17.99
2024-02-26T11:07:24.976Z,18.50
2024-02-26T11:09:54.196Z,18.46
2024-02-26T11:12:25.087Z,17.77
2024-02-26T11:14:56.481Z,17.15
2024-02-26T11:17:29.631Z,16.67
2024-02-26T11:20:00.237Z,16.42
2024-02-26T11:22:30.565Z,16.20
2024-02-26T11:25:01.872Z,16.19
2024-02-26T11:27:35.285Z,16.10
2024-02-26T11:30:06.649Z,16.07
2024-02-26T11:32:38.033Z,16.11
2024-02-26T11:35:08.582Z,16.10
2024-02-26T11:37:40.142Z,16.21
2024-02-26T11:40:14.146Z,16.21
2024-02-26T11:42:47.005Z,16.15
2024-02-26T11:45:53.392Z,16.11
2024-02-26T11:48:27.825Z,15.97
2024-02-26T11:50:57.951Z,15.82
2024-02-26T11:53:28.234Z,15.76
2024-02-26T11:56:15.962Z,15.63
2024-02-26T11:58:44.743Z,15.48
2024-02-26T12:01:45.189Z,15.34
2024-02-26T12:04:21.082Z,15.23
2024-02-26T12:06:53.414Z,15.17
2024-02-26T12:09:39.082Z,15.05
2024-02-26T12:12:09.821Z,14.98
2024-02-26T12:14:41.082Z,14.80
2024-02-26T12:17:21.186Z,14.67
2024-02-26T12:19:55.389Z,14.59
2024-02-26T12:22:26.633Z,14.54
2024-02-26T12:25:02.123Z,14.45
2024-02-26T12:27:31.510Z,14.51
2024-02-26T12:30:00.078Z,14.52
2024-02-26T12:32:33.103Z,14.60
2024-02-26T12:35:03.862Z,14.68
2024-02-26T12:37:36.273Z,14.68
2024-02-26T12:40:05.235Z,14.64
2024-02-26T12:42:40.738Z,14.61
2024-02-26T12:45:11.616Z,14.50
2024-02-26T12:47:40.714Z,14.43
2024-02-26T12:50:12.248Z,14.38
2024-02-26T12:52:43.141Z,14.37
2024-02-26T12:55:16.728Z,14.36
2024-02-26T12:57:46.943Z,14.36
2024-02-26T13:00:18.955Z,14.31
2024-02-26T13:02:48.924Z,14.31
2024-02-26T13:05:21.449Z,14.30
2024-02-26T13:07:49.800Z,14.27
2024-02-26T13:10:19.856Z,14.25
2024-02-26T13:12:51.677Z,14.21
2024-02-26T13:15:21.535Z,14.15
2024-02-26T13:17:51.848Z,14.09
2024-02-26T13:20:30.216Z,14.05
2024-02-26T13:23:08.857Z,13.89
2024-02-26T13:25:45.337Z,13.98
2024-02-26T13:28:17.487Z,13.93
2024-02-26T13:30:53.867Z,13.93
2024-02-26T13:33:23.684Z,13.91
2024-02-26T13:35:54.505Z,13.96
2024-02-26T13:38:24.372Z,13.93
2024-02-26T13:40:55.577Z,13.91
2024-02-26T13:43:24.662Z,13.89
2024-02-26T13:45:55.835Z,13.85
2024-02-26T13:48:27.472Z,13.89
2024-02-26T13:50:57.895Z,13.93
2024-02-26T13:53:26.655Z,13.97
2024-02-26T13:55:57.076Z,14.03
2024-02-26T13:58:25.618Z,14.12
2024-02-26T14:00:54.193Z,14.19
2024-02-26T14:03:23.055Z,14.22
2024-02-26T14:05:52.229Z,14.24
2024-02-26T14:08:22.662Z,14.21
2024-02-26T14:10:54.517Z,14.18
2024-02-26T14:13:23.201Z,14.16
2024-02-26T14:15:52.076Z,14.16
2024-02-26T14:18:20.858Z,14.13
2024-02-26T14:20:52.882Z,14.09
2024-02-26T14:23:22.981Z,14.16
2024-02-26T14:25:52.083Z,14.16
2024-02-26T14:28:28.951Z,14.13
2024-02-26T14:31:01.329Z,14.09
2024-02-26T14:33:30.100Z,14.05
2024-02-26T14:36:00.317Z,13.98
2024-02-26T14:38:30.612Z,13.93
2024-02-26T14:40:59.470Z,13.89
2024-02-26T14:43:27.923Z,13.84
2024-02-26T14:45:56.542Z,13.81
2024-02-26T14:48:25.085Z,13.80
2024-02-26T14:50:54.046Z,13.74
2024-02-26T14:53:22.926Z,13.68
2024-02-26T14:55:53.181Z,13.60
2024-02-26T14:58:22.788Z,13.56
2024-02-26T15:00:51.394Z,13.54
2024-02-26T15:03:20.471Z,13.50
2024-02-26T15:05:49.640Z,13.45
2024-02-26T15:08:20.601Z,13.41
2024-02-26T15:10:49.971Z,13.35
2024-02-26T15:13:23.660Z,13.29
2024-02-26T15:15:52.311Z,13.28
2024-02-26T15:18:20.971Z,13.24
2024-02-26T15:20:50.190Z,13.22
2024-02-26T15:23:20.126Z,13.20
2024-02-26T15:25:49.008Z,13.17
2024-02-26T15:28:17.914Z,13.08
2024-02-26T15:30:49.552Z,13.03
2024-02-26T15:33:18.963Z,12.99
2024-02-26T15:35:48.463Z,12.94
2024-02-26T15:38:17.097Z,12.88
2024-02-26T15:40:50.581Z,12.82
2024-02-26T15:43:21.012Z,12.75
2024-02-26T15:45:54.038Z,12.74
2024-02-26T15:48:44.337Z,12.68
2024-02-26T15:51:22.058Z,12.62
2024-02-26T15:53:51.015Z,12.59
2024-02-26T15:56:25.685Z,12.54
2024-02-26T15:58:55.290Z,12.51
2024-02-26T16:01:29.115Z,12.48
2024-02-26T16:04:00.240Z,12.44
2024-02-26T16:06:37.100Z,12.43
2024-02-26T16:09:06.304Z,12.44
2024-02-26T16:11:35.192Z,12.41
2024-02-26T16:14:15.761Z,12.40
2024-02-26T16:16:55.439Z,12.37
2024-02-26T16:19:25.400Z,12.36
2024-02-26T16:21:57.446Z,12.34
2024-02-26T16:24:25.930Z,12.34
2024-02-26T16:26:54.826Z,12.31
2024-02-26T16:29:25.119Z,12.33
2024-02-26T16:31:55.626Z,12.34
2024-02-26T16:34:24.072Z,12.32
2024-02-26T16:36:55.691Z,12.30
2024-02-26T16:39:29.491Z,12.28
2024-02-26T16:42:00.835Z,12.24
2024-02-26T16:44:30.096Z,12.25
2024-02-26T16:47:04.920Z,12.22
2024-02-26T16:49:35.153Z,12.20
2024-02-26T16:52:09.348Z,12.19
2024-02-26T16:54:38.678Z,12.19
2024-02-26T16:57:07.806Z,12.16
2024-02-26T16:59:43.840Z,12.16
2024-02-26T17:02:20.588Z,12.13
2024-02-26T17:04:50.928Z,12.12
2024-02-26T17:07:19.844Z,12.08
2024-02-26T17:09:50.876Z,12.02
2024-02-26T17:12:22.614Z,12.00
2024-02-26T17:14:56.156Z,11.96
2024-02-26T17:17:30.779Z,11.95
2024-02-26T17:20:00.470Z,11.94
2024-02-26T17:22:30.261Z,11.96
2024-02-26T17:24:59.692Z,12.00
2024-02-26T17:27:30.290Z,11.97
2024-02-26T17:30:01.051Z,12.00
2024-02-26T17:32:32.317Z,12.00
2024-02-26T17:35:05.305Z,12.00
2024-02-26T17:37:34.988Z,11.97
2024-02-26T17:40:05.932Z,11.98
2024-02-26T17:42:35.286Z,11.96
2024-02-26T17:45:05.481Z,11.96
2024-02-26T17:47:43.936Z,11.94
2024-02-26T17:50:14.384Z,11.94
2024-02-26T17:52:43.659Z,11.88
2024-02-26T17:55:15.451Z,11.92
2024-02-26T17:57:44.455Z,11.91
2024-02-26T18:00:18.761Z,11.92
2024-02-26T18:02:49.514Z,11.91
2024-02-26T18:05:18.798Z,11.93
2024-02-26T18:07:50.779Z,11.95
2024-02-26T18:10:24.316Z,11.96
2024-02-26T18:12:55.541Z,11.94
2024-02-26T18:15:31.429Z,11.90
2024-02-26T18:18:03.089Z,11.88
2024-02-26T18:20:32.996Z,11.87
2024-02-26T18:23:08.332Z,11.83
2024-02-26T18:25:38.765Z,11.74
2024-02-26T18:28:14.339Z,11.71
2024-02-26T18:30:47.378Z,11.67
2024-02-26T18:33:22.043Z,11.67
2024-02-26T18:35:51.019Z,11.64
2024-02-26T18:38:23.161Z,11.63
2024-02-26T18:40:55.693Z,11.60
2024-02-26T18:43:25.956Z,11.60
2024-02-26T18:45:58.768Z,11.52
2024-02-26T18:48:32.191Z,11.39
2024-02-26T18:51:05.877Z,11.31
2024-02-26T18:53:41.738Z,11.27
2024-02-26T18:56:10.729Z,11.20
2024-02-26T18:58:39.707Z,11.20
2024-02-26T19:01:10.445Z,11.22
2024-02-26T19:03:42.250Z,11.19
2024-02-26T19:06:13.847Z,11.17
2024-02-26T19:08:43.362Z,11.19
2024-02-26T19:11:12.546Z,11.20
2024-02-26T19:13:41.380Z,11.15
2024-02-26T19:16:09.772Z,11.10
2024-02-26T19:18:38.642Z,11.05
2024-02-26T19:21:09.337Z,11.07
2024-02-26T19:23:37.913Z,11.05
2024-02-26T19:26:06.792Z,11.05
2024-02-26T19:28:35.231Z,11.11
2024-02-26T19:31:07.564Z,11.17
2024-02-26T19:33:37.752Z,11.25
2024-02-26T19:36:10.288Z,11.29
2024-02-26T19:38:40.292Z,11.32
2024-02-26T19:41:11.824Z,11.34
2024-02-26T19:43:40.793Z,11.24
2024-02-26T19:46:09.533Z,11.22
2024-02-26T19:48:40.289Z,11.25
2024-02-26T19:51:10.656Z,11.31
2024-02-26T19:53:40.826Z,11.31
2024-02-26T19:56:09.079Z,11.29
2024-02-26T19:58:39.736Z,11.22
2024-02-26T20:01:12.330Z,11.22
2024-02-26T20:03:46.835Z,11.31
2024-02-26T20:06:19.814Z,11.39
2024-02-26T20:08:54.882Z,11.41
2024-02-26T20:11:24.006Z,11.43
2024-02-26T20:13:55.699Z,11.45
2024-02-26T20:16:24.899Z,11.46
2024-02-26T20:18:55.111Z,11.41
2024-02-26T20:21:25.828Z,11.33
2024-02-26T20:23:55.135Z,11.29
2024-02-26T20:26:23.874Z,11.21
2024-02-26T20:28:57.801Z,11.18
2024-02-26T20:31:27.380Z,11.14
2024-02-26T20:33:59.223Z,11.08
2024-02-26T20:36:33.513Z,11.10
2024-02-26T20:39:03.789Z,11.09
2024-02-26T20:41:34.691Z,11.07
2024-02-26T20:44:04.765Z,11.13
2024-02-26T20:46:34.290Z,11.24
2024-02-26T20:49:06.878Z,11.35
2024-02-26T20:51:39.944Z,11.49
2024-02-26T20:54:11.843Z,11.53
2024-02-26T20:56:41.824Z,11.51
2024-02-26T20:59:14.374Z,11.54
2024-02-26T21:01:43.926Z,11.57
2024-02-26T21:04:13.643Z,11.63
2024-02-26T21:06:46.179Z,11.66
2024-02-26T21:09:19.895Z,11.70
2024-02-26T21:11:52.213Z,11.74
2024-02-26T21:14:22.604Z,11.77
2024-02-26T21:16:52.922Z,11.80
2024-02-26T21:19:28.934Z,11.82
2024-02-26T21:21:59.712Z,11.84
2024-02-26T21:24:29.330Z,11.84
2024-02-26T21:26:58.705Z,11.89
2024-02-26T21:29:28.441Z,11.88
2024-02-26T21:31:58.213Z,11.89
2024-02-26T21:34:27.549Z,11.89
2024-02-26T21:36:56.812Z,11.88
2024-02-26T21:39:29.679Z,11.88
2024-02-26T21:42:00.678Z,11.86
2024-02-26T21:44:32.994Z,11.86
2024-02-26T21:47:04.076Z,11.90
2024-02-26T21:49:33.955Z,11.85
2024-02-26T21:52:03.676Z,11.84
2024-02-26T21:54:35.964Z,11.83
2024-02-26T21:57:07.211Z,11.82
2024-02-26T21:59:36.739Z,11.81
2024-02-26T22:02:05.614Z,11.78
2024-02-26T22:04:34.531Z,11.78
2024-02-26T22:07:04.478Z,11.76
2024-02-26T22:09:35.420Z,11.74
2024-02-26T22:12:04.572Z,11.68
2024-02-26T22:14:33.831Z,11.62
2024-02-26T22:17:07.780Z,11.57
2024-02-26T22:19:36.961Z,11.52
2024-02-26T22:22:06.477Z,11.47
2024-02-26T22:24:37.861Z,11.43
2024-02-26T22:27:07.355Z,11.36
2024-02-26T22:29:36.658Z,11.30
2024-02-26T22:32:05.513Z,11.27
2024-02-26T22:34:35.395Z,11.24
2024-02-26T22:37:04.966Z,11.19
2024-02-26T22:39:38.112Z,11.09
2024-02-26T22:42:08.285Z,11.02
2024-02-26T22:44:39.932Z,11.01
2024-02-26T22:47:10.019Z,11.03
2024-02-26T22:49:40.815Z,11.01
2024-02-26T22:52:12.747Z,10.94
2024-02-26T22:54:52.804Z,10.88
2024-02-26T22:57:22.692Z,10.83
2024-02-26T22:59:51.304Z,10.80
2024-02-26T23:02:20.430Z,10.73
2024-02-26T23:04:49.002Z,10.66
2024-02-26T23:07:18.911Z,10.62
2024-02-26T23:09:50.051Z,10.60
2024-02-26T23:12:20.089Z,10.57
2024-02-26T23:14:49.085Z,10.57
2024-02-26T23:17:19.900Z,10.57
2024-02-26T23:19:50.572Z,10.56
2024-02-26T23:22:23.076Z,10.49
2024-02-26T23:24:54.288Z,10.39
2024-02-26T23:27:23.340Z,10.29
2024-02-26T23:29:53.100Z,10.25
2024-02-26T23:32:22.919Z,10.17
2024-02-26T23:34:51.861Z,10.07
2024-02-26T23:37:21.243Z,9.92
2024-02-26T23:39:50.510Z,9.84
2024-02-26T23:42:23.925Z,9.77
2024-02-26T23:44:53.322Z,9.71
2024-02-26T23:47:25.394Z,9.65
2024-02-26T23:49:55.586Z,9.58
2024-02-26T23:52:24.436Z,9.52
2024-02-26T23:54:53.294Z,9.45
2024-02-26T23:57:23.250Z,9.36
2024-02-26T23:59:52.531Z,9.29
